Time;durP1;ratioP1;P1;durP2;ratioP2;P2;SDS_P1;SDS_P2;PMS_P1;PMS_P2;Temp;Humidity;BMP_temperature;BMP_pressure;BME280_temperature;BME280_humidity;BME280_pressure;Samples;Min_cycle;Max_cycle;Signal;HPM_P1;HPM_P2
2023/12/06 00:01:16;;;;;;;1999.90;999.90;;;;;;;;;;5007933;28;20082;-88
2023/12/06 00:03:42;;;;;;;1999.90;999.90;;;;;;;;;;5020126;28;20395;-88
2023/12/06 00:06:09;;;;;;;1999.90;999.90;;;;;;;;;;5028701;28;20053;-87
2023/12/06 00:08:36;;;;;;;1999.90;999.90;;;;;;;;;;5005347;28;20054;-88
2023/12/06 00:11:07;;;;;;;1999.90;999.90;;;;;;;;;;5002627;28;20057;-88
2023/12/06 00:13:34;;;;;;;1999.90;999.90;;;;;;;;;;5012961;28;20054;-87
2023/12/06 00:16:01;;;;;;;1999.90;999.90;;;;;;;;;;4989335;28;20069;-87
2023/12/06 00:18:30;;;;;;;1999.90;999.90;;;;;;;;;;5029100;28;20136;-88
2023/12/06 00:20:56;;;;;;;1999.90;999.90;;;;;;;;;;5019598;28;20041;-87
2023/12/06 00:23:28;;;;;;;1999.90;999.90;;;;;;;;;;5024760;28;20396;-87
2023/12/06 00:25:55;;;;;;;1999.90;999.90;;;;;;;;;;5005994;28;20060;-86
2023/12/06 00:28:22;;;;;;;1999.90;999.90;;;;;;;;;;5008437;28;20460;-86
2023/12/06 00:30:49;;;;;;;1999.90;999.90;;;;;;;;;;5006339;28;20045;-87
2023/12/06 00:33:16;;;;;;;1999.90;999.90;;;;;;;;;;5023954;28;20061;-85
2023/12/06 00:35:44;;;;;;;1999.90;999.90;;;;;;;;;;5028619;28;20053;-87
2023/12/06 00:38:11;;;;;;;1999.90;999.90;;;;;;;;;;5023152;28;20057;-86
2023/12/06 00:40:39;;;;;;;1999.90;999.90;;;;;;;;;;5023919;28;20065;-87
2023/12/06 00:43:05;;;;;;;1999.90;999.90;;;;;;;;;;4998786;28;20054;-86
2023/12/06 00:45:32;;;;;;;1999.90;999.90;;;;;;;;;;5011041;28;20045;-87
2023/12/06 00:48:00;;;;;;;1999.90;999.90;;;;;;;;;;5025210;28;20053;-86
2023/12/06 00:50:27;;;;;;;1999.90;999.90;;;;;;;;;;5002448;28;20606;-85
2023/12/06 00:52:55;;;;;;;1999.90;999.90;;;;;;;;;;5006915;28;20111;-85
2023/12/06 00:55:22;;;;;;;1999.90;999.90;;;;;;;;;;5018967;28;20134;-86
2023/12/06 00:57:49;;;;;;;1999.90;999.90;;;;;;;;;;5021264;28;20057;-87
2023/12/06 01:00:16;;;;;;;1999.90;999.90;;;;;;;;;;5008116;28;20042;-87
2023/12/06 01:02:44;;;;;;;1999.90;999.90;;;;;;;;;;5024629;28;20463;-87
2023/12/06 01:05:12;;;;;;;1999.90;999.90;;;;;;;;;;5004737;28;20061;-88
2023/12/06 01:07:39;;;;;;;1999.90;999.90;;;;;;;;;;5026636;28;20077;-88
2023/12/06 01:10:09;;;;;;;1999.90;999.90;;;;;;;;;;5010773;28;20064;-87
2023/12/06 01:12:36;;;;;;;1999.90;999.90;;;;;;;;;;5003323;28;20077;-88
2023/12/06 01:15:04;;;;;;;1999.90;999.90;;;;;;;;;;5008355;28;20058;-88
2023/12/06 01:17:32;;;;;;;1999.90;999.90;;;;;;;;;;5010337;28;20057;-88
2023/12/06 01:19:58;;;;;;;1999.90;999.90;;;;;;;;;;5025379;28;20060;-88
2023/12/06 01:22:26;;;;;;;1999.90;999.90;;;;;;;;;;5028869;28;20061;-89
2023/12/06 01:24:58;;;;;;;1999.90;999.90;;;;;;;;;;5024198;28;20057;-90
2023/12/06 01:27:26;;;;;;;1999.90;999.90;;;;;;;;;;5007223;28;20050;-89
2023/12/06 01:29:53;;;;;;;1999.90;999.90;;;;;;;;;;5021274;28;20046;-90
2023/12/06 01:32:22;;;;;;;1999.90;999.90;;;;;;;;;;5002266;28;20108;-89
2023/12/06 01:34:49;;;;;;;1999.90;999.90;;;;;;;;;;5009336;28;20049;-89
2023/12/06 01:37:18;;;;;;;1999.90;999.90;;;;;;;;;;5002945;28;20064;-89
2023/12/06 01:39:50;;;;;;;1999.90;999.90;;;;;;;;;;5004619;28;20050;-89
2023/12/06 01:42:19;;;;;;;1999.90;999.90;;;;;;;;;;5021466;28;20112;-89
2023/12/06 01:44:47;;;;;;;1999.90;999.90;;;;;;;;;;5027095;28;20045;-88
2023/12/06 01:47:14;;;;;;;1999.90;999.90;;;;;;;;;;5024052;28;20060;-89
2023/12/06 01:49:41;;;;;;;1999.90;999.90;;;;;;;;;;5020928;28;20050;-88
2023/12/06 01:52:08;;;;;;;1999.90;999.90;;;;;;;;;;5023844;28;20405;-89
2023/12/06 01:54:34;;;;;;;1999.90;999.90;;;;;;;;;;5009837;28;20052;-89
2023/12/06 01:57:03;;;;;;;1999.90;999.90;;;;;;;;;;5024929;28;20056;-88
2023/12/06 01:59:30;;;;;;;1999.90;999.90;;;;;;;;;;5022733;28;20053;-88
2023/12/06 02:01:59;;;;;;;1999.90;999.90;;;;;;;;;;5026405;28;20439;-88
2023/12/06 02:04:27;;;;;;;1999.90;999.90;;;;;;;;;;5011492;28;20104;-88
2023/12/06 02:06:54;;;;;;;1999.90;999.90;;;;;;;;;;5021423;28;20060;-88
2023/12/06 02:09:22;;;;;;;1999.90;999.90;;;;;;;;;;5001899;28;20053;-89
2023/12/06 02:11:49;;;;;;;1999.90;999.90;;;;;;;;;;5021701;28;20088;-89
2023/12/06 02:14:16;;;;;;;1999.90;999.90;;;;;;;;;;4975593;28;20061;-86
2023/12/06 02:16:44;;;;;;;1999.90;999.90;;;;;;;;;;5007614;28;20112;-85
2023/12/06 02:19:16;;;;;;;1999.90;999.90;;;;;;;;;;5023627;28;20053;-85
2023/12/06 02:21:43;;;;;;;1999.90;999.90;;;;;;;;;;5021611;28;20041;-85
2023/12/06 02:24:11;;;;;;;1999.90;999.90;;;;;;;;;;4997119;28;20416;-85
2023/12/06 02:26:39;;;;;;;1999.90;999.90;;;;;;;;;;5005539;28;20461;-84
2023/12/06 02:29:06;;;;;;;1999.90;999.90;;;;;;;;;;5001366;28;20057;-85
2023/12/06 02:31:33;;;;;;;1999.90;999.90;;;;;;;;;;5003075;28;20052;-85
2023/12/06 02:34:02;;;;;;;1999.90;999.90;;;;;;;;;;5006019;28;20459;-84
2023/12/06 02:36:30;;;;;;;1999.90;999.90;;;;;;;;;;5000493;28;20053;-84
2023/12/06 02:38:57;;;;;;;1999.90;999.90;;;;;;;;;;5022388;28;20053;-85
2023/12/06 02:41:25;;;;;;;1999.90;999.90;;;;;;;;;;5001268;28;20391;-84
2023/12/06 02:43:53;;;;;;;1999.90;999.90;;;;;;;;;;4997677;28;20448;-84
2023/12/06 02:46:20;;;;;;;1999.90;999.90;;;;;;;;;;5020453;28;20412;-85
2023/12/06 02:48:46;;;;;;;1999.90;999.90;;;;;;;;;;5020273;28;20164;-85
2023/12/06 02:51:13;;;;;;;1999.90;999.90;;;;;;;;;;5036292;28;20109;-84
2023/12/06 02:53:40;;;;;;;1999.90;999.90;;;;;;;;;;5042512;28;20077;-84
2023/12/06 02:56:08;;;;;;;1999.90;999.90;;;;;;;;;;4998717;28;20049;-84
2023/12/06 02:58:35;;;;;;;1999.90;999.90;;;;;;;;;;5005799;28;20116;-85
2023/12/06 03:01:04;;;;;;;1999.90;999.90;;;;;;;;;;5010720;28;20052;-85
2023/12/06 03:03:30;;;;;;;1999.90;999.90;;;;;;;;;;5006215;28;20056;-84
2023/12/06 03:05:57;;;;;;;1999.90;999.90;;;;;;;;;;5015362;28;20053;-85
2023/12/06 03:08:24;;;;;;;1999.90;999.90;;;;;;;;;;5024637;28;20053;-84
2023/12/06 03:10:51;;;;;;;1999.90;999.90;;;;;;;;;;5016886;28;20045;-85
2023/12/06 03:13:17;;;;;;;1999.90;999.90;;;;;;;;;;5019852;28;20049;-85
2023/12/06 03:15:44;;;;;;;1999.90;999.90;;;;;;;;;;5017995;28;20057;-84
2023/12/06 03:18:13;;;;;;;1999.90;999.90;;;;;;;;;;5019492;28;20049;-85
2023/12/06 03:20:40;;;;;;;1999.90;999.90;;;;;;;;;;4995547;28;20050;-86
2023/12/06 03:23:06;;;;;;;1999.90;999.90;;;;;;;;;;5002446;28;20466;-84
2023/12/06 03:25:33;;;;;;;1999.90;999.90;;;;;;;;;;5025015;28;20056;-88
2023/12/06 03:28:00;;;;;;;1999.90;999.90;;;;;;;;;;5026194;28;20060;-89
2023/12/06 03:30:27;;;;;;;1999.90;999.90;;;;;;;;;;5020064;28;20045;-89
2023/12/06 03:32:54;;;;;;;1999.90;999.90;;;;;;;;;;5016296;28;20539;-89
2023/12/06 03:35:22;;;;;;;1999.90;999.90;;;;;;;;;;5036943;28;20060;-88
2023/12/06 03:37:49;;;;;;;1999.90;999.90;;;;;;;;;;5035468;28;20057;-88
2023/12/06 03:40:16;;;;;;;1999.90;999.90;;;;;;;;;;5017665;28;20045;-89
2023/12/06 03:42:43;;;;;;;1999.90;999.90;;;;;;;;;;4997747;28;20056;-88
2023/12/06 03:45:12;;;;;;;1999.90;999.90;;;;;;;;;;5020150;28;20096;-89
2023/12/06 03:47:39;;;;;;;1999.90;999.90;;;;;;;;;;5027977;28;20057;-89
2023/12/06 03:50:07;;;;;;;1999.90;999.90;;;;;;;;;;5003612;28;20053;-89
2023/12/06 03:52:35;;;;;;;1999.90;999.90;;;;;;;;;;5010548;28;20053;-89
2023/12/06 03:55:02;;;;;;;1999.90;999.90;;;;;;;;;;5021798;28;20068;-89
2023/12/06 03:57:29;;;;;;;1999.90;999.90;;;;;;;;;;5021581;28;20056;-88
2023/12/06 03:59:56;;;;;;;1999.90;999.90;;;;;;;;;;5004627;28;20045;-89
2023/12/06 04:02:23;;;;;;;1999.90;999.90;;;;;;;;;;4994848;28;20072;-88
2023/12/06 04:04:49;;;;;;;1999.90;999.90;;;;;;;;;;5028658;28;20053;-88
2023/12/06 04:07:17;;;;;;;1999.90;999.90;;;;;;;;;;5027402;28;20046;-88
2023/12/06 04:09:46;;;;;;;1999.90;999.90;;;;;;;;;;5026917;28;20057;-89
2023/12/06 04:12:14;;;;;;;1999.90;999.90;;;;;;;;;;5030046;28;20120;-89
2023/12/06 04:14:42;;;;;;;1999.90;999.90;;;;;;;;;;5022788;28;20058;-89
2023/12/06 04:17:09;;;;;;;1999.90;999.90;;;;;;;;;;5032088;28;20048;-89
2023/12/06 04:19:36;;;;;;;1999.90;999.90;;;;;;;;;;5025436;28;20567;-89
2023/12/06 04:22:03;;;;;;;1999.90;999.90;;;;;;;;;;5026859;28;20058;-89
2023/12/06 04:24:30;;;;;;;1999.90;999.90;;;;;;;;;;5028484;28;20056;-89
2023/12/06 04:26:58;;;;;;;1999.90;999.90;;;;;;;;;;5015479;28;20049;-89
2023/12/06 04:29:25;;;;;;;1999.90;999.90;;;;;;;;;;5000644;28;20057;-89
2023/12/06 04:31:52;;;;;;;1999.90;999.90;;;;;;;;;;5024908;28;20516;-90
2023/12/06 04:34:19;;;;;;;1999.90;999.90;;;;;;;;;;5027536;28;20084;-90
2023/12/06 04:36:46;;;;;;;1999.90;999.90;;;;;;;;;;5012864;28;20045;-90
2023/12/06 04:39:13;;;;;;;1999.90;999.90;;;;;;;;;;5035478;28;20068;-90
2023/12/06 04:41:40;;;;;;;1999.90;999.90;;;;;;;;;;5028745;28;20425;-89
2023/12/06 04:44:08;;;;;;;1999.90;999.90;;;;;;;;;;4999704;28;20046;-89
2023/12/06 04:46:35;;;;;;;1999.90;999.90;;;;;;;;;;5024502;28;20046;-90
2023/12/06 04:49:03;;;;;;;1999.90;999.90;;;;;;;;;;5010702;28;20045;-90
2023/12/06 04:51:31;;;;;;;1999.90;999.90;;;;;;;;;;5020792;28;20050;-89
2023/12/06 04:54:00;;;;;;;1999.90;999.90;;;;;;;;;;5020729;28;20549;-90
2023/12/06 04:56:27;;;;;;;1999.90;999.90;;;;;;;;;;5006641;28;20061;-90
2023/12/06 04:58:54;;;;;;;1999.90;999.90;;;;;;;;;;5031468;28;20056;-91
2023/12/06 05:01:23;;;;;;;1999.90;999.90;;;;;;;;;;5027832;28;20589;-91
2023/12/06 05:03:49;;;;;;;1999.90;999.90;;;;;;;;;;5029791;28;20050;-90
2023/12/06 05:06:16;;;;;;;1999.90;999.90;;;;;;;;;;5012322;28;20053;-91
2023/12/06 05:08:45;;;;;;;1999.90;999.90;;;;;;;;;;5022181;28;20045;-90
2023/12/06 05:11:21;;;;;;;1999.90;999.90;;;;;;;;;;5017441;28;20056;-90
2023/12/06 05:13:48;;;;;;;;;;;;;;;;;;5024230;28;20057;-91
2023/12/06 05:16:15;;;;;;;;;;;;;;;;;;5028683;28;19931;-90
2023/12/06 05:18:44;;;;;;;1999.90;999.90;;;;;;;;;;5029232;28;19933;-92
2023/12/06 05:21:11;;;;;;;1999.90;999.90;;;;;;;;;;5027904;28;20047;-92
2023/12/06 05:23:38;;;;;;;1999.90;999.90;;;;;;;;;;5021938;28;20436;-93
2023/12/06 05:26:05;;;;;;;1999.90;999.90;;;;;;;;;;5036973;28;20133;-89
2023/12/06 05:28:32;;;;;;;1999.90;999.90;;;;;;;;;;4989145;28;20068;-92
2023/12/06 05:30:59;;;;;;;1999.90;999.90;;;;;;;;;;5010289;28;20050;-92
2023/12/06 05:36:13;;;;;;;1999.90;999.90;;;;;;;;;;5095106;22;20067;-86
2023/12/06 05:38:40;;;;;;;1999.90;999.90;;;;;;;;;;5072536;28;20052;-84
2023/12/06 05:41:06;;;;;;;1999.90;999.90;;;;;;;;;;5059446;28;20049;-86
2023/12/06 05:43:33;;;;;;;1999.90;999.90;;;;;;;;;;5064463;28;20044;-84
2023/12/06 05:45:59;;;;;;;1999.90;999.90;;;;;;;;;;5073295;28;20051;-84
2023/12/06 05:48:26;;;;;;;1999.90;999.90;;;;;;;;;;5072142;28;20044;-85
2023/12/06 05:50:53;;;;;;;1999.90;999.90;;;;;;;;;;5061030;28;20045;-85
2023/12/06 05:53:21;;;;;;;1999.90;999.90;;;;;;;;;;5063458;28;20071;-85
2023/12/06 05:55:48;;;;;;;1999.90;999.90;;;;;;;;;;5058704;28;20110;-86
2023/12/06 05:58:14;;;;;;;1999.90;999.90;;;;;;;;;;5071031;28;20055;-84
2023/12/06 06:00:41;;;;;;;1999.90;999.90;;;;;;;;;;5063440;28;20486;-84
2023/12/06 06:03:07;;;;;;;1999.90;999.90;;;;;;;;;;5080179;28;20044;-85
2023/12/06 06:05:34;;;;;;;1999.90;999.90;;;;;;;;;;5066920;28;20499;-85
2023/12/06 06:08:00;;;;;;;1999.90;999.90;;;;;;;;;;5058014;28;20512;-85
2023/12/06 06:10:28;;;;;;;1999.90;999.90;;;;;;;;;;5067010;28;20049;-84
2023/12/06 06:12:55;;;;;;;1999.90;999.90;;;;;;;;;;5064012;28;20063;-85
2023/12/06 06:15:22;;;;;;;1999.90;999.90;;;;;;;;;;5072385;28;20238;-83
2023/12/06 06:17:49;;;;;;;1999.90;999.90;;;;;;;;;;5073520;28;20087;-85
2023/12/06 06:20:15;;;;;;;1999.90;999.90;;;;;;;;;;5067640;28;20051;-85
2023/12/06 06:22:42;;;;;;;1999.90;999.90;;;;;;;;;;5069969;28;20040;-86
2023/12/06 06:25:10;;;;;;;1999.90;999.90;;;;;;;;;;5069105;28;20060;-85
2023/12/06 06:27:38;;;;;;;1999.90;999.90;;;;;;;;;;5079041;28;20044;-86
2023/12/06 06:30:06;;;;;;;1999.90;999.90;;;;;;;;;;5066898;28;20041;-85
2023/12/06 06:32:32;;;;;;;1999.90;999.90;;;;;;;;;;5070052;28;20489;-86
2023/12/06 06:34:59;;;;;;;1999.90;999.90;;;;;;;;;;5063219;28;20057;-88
2023/12/06 06:37:26;;;;;;;1999.90;999.90;;;;;;;;;;5060135;28;20050;-86
2023/12/06 06:39:57;;;;;;;1999.90;999.90;;;;;;;;;;5068463;28;20080;-85
2023/12/06 06:42:23;;;;;;;1999.90;999.90;;;;;;;;;;5070028;28;20066;-87
2023/12/06 06:44:51;;;;;;;1999.90;999.90;;;;;;;;;;5068296;28;20041;-86
2023/12/06 06:47:18;;;;;;;1999.90;999.90;;;;;;;;;;5063146;28;20052;-85
2023/12/06 06:49:46;;;;;;;1999.90;999.90;;;;;;;;;;5066553;28;20102;-86
2023/12/06 06:52:12;;;;;;;1999.90;999.90;;;;;;;;;;5085204;28;20053;-86
2023/12/06 06:54:39;;;;;;;1999.90;999.90;;;;;;;;;;5083638;28;20499;-86
2023/12/06 06:57:05;;;;;;;1999.90;999.90;;;;;;;;;;5072919;28;20415;-86
2023/12/06 06:59:32;;;;;;;1999.90;999.90;;;;;;;;;;5069493;28;20049;-86
2023/12/06 07:02:02;;;;;;;1999.90;999.90;;;;;;;;;;5070992;28;20241;-87
2023/12/06 07:04:28;;;;;;;1999.90;999.90;;;;;;;;;;5080142;28;20052;-86
2023/12/06 07:06:55;;;;;;;1999.90;999.90;;;;;;;;;;5084583;28;20044;-87
2023/12/06 07:09:22;;;;;;;1999.90;999.90;;;;;;;;;;5069124;28;20048;-88
2023/12/06 07:11:54;;;;;;;1999.90;999.90;;;;;;;;;;5079653;28;20059;-86
2023/12/06 07:14:20;;;;;;;1999.90;999.90;;;;;;;;;;5092805;28;20131;-86
2023/12/06 07:16:47;;;;;;;1999.90;999.90;;;;;;;;;;5082449;28;20057;-85
2023/12/06 07:19:15;;;;;;;1999.90;999.90;;;;;;;;;;5082785;28;20043;-87
2023/12/06 07:21:42;;;;;;;1999.90;999.90;;;;;;;;;;5063025;28;20049;-86
2023/12/06 07:24:08;;;;;;;1999.90;999.90;;;;;;;;;;5067591;28;20478;-87
2023/12/06 07:26:36;;;;;;;1999.90;999.90;;;;;;;;;;5071803;28;20496;-87
2023/12/06 07:29:02;;;;;;;1999.90;999.90;;;;;;;;;;5070741;28;20449;-88
2023/12/06 07:31:29;;;;;;;1999.90;999.90;;;;;;;;;;5077895;28;20044;-88
2023/12/06 07:33:56;;;;;;;1999.90;999.90;;;;;;;;;;5064840;28;20048;-88
2023/12/06 07:36:24;;;;;;;1999.90;999.90;;;;;;;;;;5089872;28;20084;-88
2023/12/06 07:38:51;;;;;;;1999.90;999.90;;;;;;;;;;5096237;28;20058;-88
2023/12/06 07:41:30;;;;;;;1999.90;999.90;;;;;;;;;;5076545;28;20061;-88
2023/12/06 07:43:56;;;;;;;1999.90;999.90;;;;;;;;;;5065228;28;20060;-87
2023/12/06 07:46:23;;;;;;;1999.90;999.90;;;;;;;;;;5068630;28;20056;-88
2023/12/06 07:48:49;;;;;;;1999.90;999.90;;;;;;;;;;5063735;28;20052;-87
2023/12/06 07:51:16;;;;;;;1999.90;999.90;;;;;;;;;;5065497;28;20481;-88
2023/12/06 07:53:44;;;;;;;1999.90;999.90;;;;;;;;;;5067655;28;20545;-88
2023/12/06 07:56:11;;;;;;;1999.90;999.90;;;;;;;;;;5066606;28;20067;-88
2023/12/06 07:58:38;;;;;;;1999.90;999.90;;;;;;;;;;5066393;28;20095;-88
2023/12/06 08:01:05;;;;;;;1999.90;999.90;;;;;;;;;;5063887;28;20124;-88
2023/12/06 08:03:32;;;;;;;1999.90;999.90;;;;;;;;;;5071951;28;20102;-88
2023/12/06 08:06:01;;;;;;;1999.90;999.90;;;;;;;;;;5066507;28;20044;-88
2023/12/06 08:08:28;;;;;;;1999.90;999.90;;;;;;;;;;5066001;28;20088;-88
2023/12/06 08:11:02;;;;;;;1999.90;999.90;;;;;;;;;;5068870;28;20118;-89
2023/12/06 08:13:29;;;;;;;1999.90;999.90;;;;;;;;;;5070261;28;20052;-89
2023/12/06 08:15:56;;;;;;;1999.90;999.90;;;;;;;;;;5067185;28;20060;-89
2023/12/06 08:18:22;;;;;;;1999.90;999.90;;;;;;;;;;5074070;28;20059;-88
2023/12/06 08:20:49;;;;;;;1999.90;999.90;;;;;;;;;;5074108;28;20060;-88
2023/12/06 08:23:15;;;;;;;1999.90;999.90;;;;;;;;;;5076619;28;20046;-89
2023/12/06 08:25:42;;;;;;;1999.90;999.90;;;;;;;;;;5071882;28;20045;-89
2023/12/06 08:28:10;;;;;;;1999.90;999.90;;;;;;;;;;5083817;28;20052;-88
2023/12/06 08:30:37;;;;;;;1999.90;999.90;;;;;;;;;;5074843;28;20054;-91
2023/12/06 08:33:04;;;;;;;1999.90;999.90;;;;;;;;;;5070485;28;20064;-89
2023/12/06 08:35:30;;;;;;;1999.90;999.90;;;;;;;;;;5067317;28;20047;-89
2023/12/06 08:37:57;;;;;;;1999.90;999.90;;;;;;;;;;5068335;28;20057;-89
2023/12/06 08:40:24;;;;;;;1999.90;999.90;;;;;;;;;;5076022;28;20048;-88
2023/12/06 08:42:51;;;;;;;1999.90;999.90;;;;;;;;;;5062701;28;20070;-89
2023/12/06 08:45:19;;;;;;;1999.90;999.90;;;;;;;;;;5067711;28;20494;-89
2023/12/06 08:47:46;;;;;;;1999.90;999.90;;;;;;;;;;5063616;28;20052;-88
2023/12/06 08:50:14;;;;;;;1999.90;999.90;;;;;;;;;;5063618;28;20045;-88
2023/12/06 08:52:41;;;;;;;1999.90;999.90;;;;;;;;;;5066427;28;20051;-88
2023/12/06 08:55:08;;;;;;;1999.90;999.90;;;;;;;;;;5064325;28;20497;-88
2023/12/06 08:57:34;;;;;;;1999.90;999.90;;;;;;;;;;5068847;28;20057;-89
2023/12/06 09:00:01;;;;;;;1999.90;999.90;;;;;;;;;;5066374;28;20048;-88
2023/12/06 09:02:29;;;;;;;1999.90;999.90;;;;;;;;;;5068540;28;20052;-91
2023/12/06 09:04:55;;;;;;;1999.90;999.90;;;;;;;;;;5059997;28;20064;-89
2023/12/06 09:07:22;;;;;;;1999.90;999.90;;;;;;;;;;5060337;28;20048;-90
2023/12/06 09:09:49;;;;;;;1999.90;999.90;;;;;;;;;;5069664;28;20561;-91
2023/12/06 09:12:15;;;;;;;1999.90;999.90;;;;;;;;;;5064626;28;20062;-90
2023/12/06 09:14:42;;;;;;;1999.90;999.90;;;;;;;;;;5063917;28;20041;-90
2023/12/06 09:17:08;;;;;;;1999.90;999.90;;;;;;;;;;5065556;28;20044;-89
2023/12/06 09:19:36;;;;;;;1999.90;999.90;;;;;;;;;;5060925;28;20048;-90
2023/12/06 09:22:03;;;;;;;1999.90;999.90;;;;;;;;;;5064345;28;20589;-90
2023/12/06 09:24:29;;;;;;;1999.90;999.90;;;;;;;;;;5067292;28;20413;-91
2023/12/06 09:26:56;;;;;;;1999.90;999.90;;;;;;;;;;5063654;28;20060;-91
2023/12/06 09:29:23;;;;;;;1999.90;999.90;;;;;;;;;;5063687;28;20044;-90
2023/12/06 09:31:49;;;;;;;1999.90;999.90;;;;;;;;;;5065042;28;20459;-90
2023/12/06 09:34:16;;;;;;;1999.90;999.90;;;;;;;;;;5069673;28;20065;-91
2023/12/06 09:36:44;;;;;;;1999.90;999.90;;;;;;;;;;5070873;28;20086;-91
2023/12/06 09:39:15;;;;;;;1999.90;999.90;;;;;;;;;;5073408;28;20045;-91
2023/12/06 09:41:43;;;;;;;1999.90;999.90;;;;;;;;;;5065802;28;20049;-92
2023/12/06 09:44:09;;;;;;;1999.90;999.90;;;;;;;;;;5092497;28;20047;-91
2023/12/06 09:46:36;;;;;;;1999.90;999.90;;;;;;;;;;5082132;28;20040;-92
2023/12/06 09:49:03;;;;;;;1999.90;999.90;;;;;;;;;;5077869;28;20049;-91
2023/12/06 09:51:30;;;;;;;1999.90;999.90;;;;;;;;;;5072304;28;20053;-91
2023/12/06 09:53:58;;;;;;;1999.90;999.90;;;;;;;;;;5101960;28;20028;-92
2023/12/06 09:56:26;;;;;;;1999.90;999.90;;;;;;;;;;5091881;28;20052;-92
2023/12/06 09:58:52;;;;;;;1999.90;999.90;;;;;;;;;;5090165;28;20108;-92
2023/12/06 10:01:19;;;;;;;1999.90;999.90;;;;;;;;;;5077150;28;20108;-93
2023/12/06 10:03:46;;;;;;;1999.90;999.90;;;;;;;;;;5072733;28;20041;-92
2023/12/06 10:06:13;;;;;;;1999.90;999.90;;;;;;;;;;5073146;28;20140;-93
2023/12/06 10:08:40;;;;;;;1999.90;999.90;;;;;;;;;;5086275;28;20140;-92
2023/12/06 10:11:09;;;;;;;1999.90;999.90;;;;;;;;;;5069982;28;20044;-93
2023/12/06 10:13:37;;;;;;;1999.90;999.90;;;;;;;;;;5063218;28;20045;-92
2023/12/06 10:16:13;;;;;;;1999.90;999.90;;;;;;;;;;5060732;28;20044;-92
2023/12/06 10:18:40;;;;;;;1999.90;999.90;;;;;;;;;;5060221;28;20048;-91
2023/12/06 10:21:07;;;;;;;1999.90;999.90;;;;;;;;;;5064306;28;20066;-92
2023/12/06 10:23:35;;;;;;;1999.90;999.90;;;;;;;;;;5099425;28;20036;-90
2023/12/06 10:26:03;;;;;;;1999.90;999.90;;;;;;;;;;5106695;28;20063;-89
2023/12/06 10:28:34;;;;;;;1999.90;999.90;;;;;;;;;;5090314;28;20064;-90
2023/12/06 10:31:03;;;;;;;1999.90;999.90;;;;;;;;;;5099310;28;20059;-88
2023/12/06 10:33:31;;;;;;;1999.90;999.90;;;;;;;;;;5089742;28;20104;-87
2023/12/06 10:35:59;;;;;;;1999.90;999.90;;;;;;;;;;5080442;28;20049;-87
2023/12/06 10:38:27;;;;;;;1999.90;999.90;;;;;;;;;;5079841;28;20037;-86
2023/12/06 10:40:57;;;;;;;1999.90;999.90;;;;;;;;;;5082259;28;20053;-86
2023/12/06 10:43:25;;;;;;;1999.90;999.90;;;;;;;;;;5086992;28;20072;-87
2023/12/06 10:45:57;;;;;;;1999.90;999.90;;;;;;;;;;5089183;28;20097;-89
2023/12/06 10:48:25;;;;;;;1999.90;999.90;;;;;;;;;;5062746;28;20441;-90
2023/12/06 10:50:52;;;;;;;1999.90;999.90;;;;;;;;;;5064495;28;20079;-89
2023/12/06 10:53:19;;;;;;;1999.90;999.90;;;;;;;;;;5059115;28;20040;-89
2023/12/06 10:55:47;;;;;;;1999.90;999.90;;;;;;;;;;5063155;28;20507;-90
2023/12/06 10:58:15;;;;;;;1999.90;999.90;;;;;;;;;;5061268;28;20059;-89
2023/12/06 11:00:42;;;;;;;1999.90;999.90;;;;;;;;;;5065268;28;20063;-90
2023/12/06 11:03:10;;;;;;;1999.90;999.90;;;;;;;;;;5061377;28;20036;-91
2023/12/06 11:05:40;;;;;;;1999.90;999.90;;;;;;;;;;5059048;28;20056;-88
2023/12/06 11:08:20;;;;;;;1999.90;999.90;;;;;;;;;;5061059;28;20080;-88
2023/12/06 11:10:54;;;;;;;1999.90;999.90;;;;;;;;;;5067440;28;20048;-88
2023/12/06 11:13:30;;;;;;;1999.90;999.90;;;;;;;;;;5064938;28;20052;-89
2023/12/06 11:16:02;;;;;;;1999.90;999.90;;;;;;;;;;5063051;28;20060;-89
2023/12/06 11:18:37;;;;;;;1999.90;999.90;;;;;;;;;;5057774;28;20378;-88
2023/12/06 11:21:04;;;;;;;1999.90;999.90;;;;;;;;;;5066984;28;20425;-88
2023/12/06 11:23:31;;;;;;;1999.90;999.90;;;;;;;;;;5055602;28;20045;-89
2023/12/06 11:25:58;;;;;;;1999.90;999.90;;;;;;;;;;5064820;28;20174;-89
2023/12/06 11:28:24;;;;;;;1999.90;999.90;;;;;;;;;;5057865;28;20424;-89
2023/12/06 11:30:52;;;;;;;1999.90;999.90;;;;;;;;;;5062136;28;20055;-89
2023/12/06 11:33:18;;;;;;;1999.90;999.90;;;;;;;;;;5067773;28;20112;-89
2023/12/06 11:35:51;;;;;;;1999.90;999.90;;;;;;;;;;5063372;28;20063;-88
2023/12/06 11:38:18;;;;;;;1999.90;999.90;;;;;;;;;;5061525;28;20486;-89
2023/12/06 11:40:51;;;;;;;1999.90;999.90;;;;;;;;;;5064827;28;20052;-88
2023/12/06 11:43:20;;;;;;;1999.90;999.90;;;;;;;;;;5061318;28;20049;-88
2023/12/06 11:45:47;;;;;;;1999.90;999.90;;;;;;;;;;5055429;28;20049;-87
2023/12/06 11:48:14;;;;;;;1999.90;999.90;;;;;;;;;;5064345;28;20052;-87
2023/12/06 11:50:47;;;;;;;1999.90;999.90;;;;;;;;;;5060169;28;20062;-88
2023/12/06 11:53:13;;;;;;;1999.90;999.90;;;;;;;;;;5062488;28;20079;-87
2023/12/06 11:55:41;;;;;;;1999.90;999.90;;;;;;;;;;5060482;28;20053;-88
2023/12/06 11:58:10;;;;;;;1999.90;999.90;;;;;;;;;;5063782;28;20126;-89
2023/12/06 12:00:39;;;;;;;1999.90;999.90;;;;;;;;;;5063731;28;20059;-89
2023/12/06 12:03:07;;;;;;;1999.90;999.90;;;;;;;;;;5067362;28;20048;-89
2023/12/06 12:05:35;;;;;;;1999.90;999.90;;;;;;;;;;5061333;28;20478;-90
2023/12/06 12:08:04;;;;;;;1999.90;999.90;;;;;;;;;;5064783;28;20058;-91
2023/12/06 12:10:32;;;;;;;1999.90;999.90;;;;;;;;;;5064724;28;20079;-91
2023/12/06 12:12:59;;;;;;;1999.90;999.90;;;;;;;;;;5061062;28;20409;-93
2023/12/06 12:15:26;;;;;;;1999.90;999.90;;;;;;;;;;5064349;28;20060;-91
2023/12/06 12:17:53;;;;;;;1999.90;999.90;;;;;;;;;;5062363;28;20059;-90
2023/12/06 12:20:20;;;;;;;1999.90;999.90;;;;;;;;;;5062722;28;20418;-90
2023/12/06 12:22:47;;;;;;;1999.90;999.90;;;;;;;;;;5064922;28;20051;-92
2023/12/06 12:25:16;;;;;;;1999.90;999.90;;;;;;;;;;5064513;28;20044;-90
2023/12/06 12:27:44;;;;;;;1999.90;999.90;;;;;;;;;;5067013;28;20048;-89
2023/12/06 12:30:12;;;;;;;1999.90;999.90;;;;;;;;;;5068087;28;20064;-91
2023/12/06 12:32:40;;;;;;;1999.90;999.90;;;;;;;;;;5059571;28;20076;-91
2023/12/06 12:35:09;;;;;;;1999.90;999.90;;;;;;;;;;5063843;28;20052;-92
2023/12/06 12:37:36;;;;;;;1999.90;999.90;;;;;;;;;;5065048;28;20053;-90
2023/12/06 12:40:03;;;;;;;1999.90;999.90;;;;;;;;;;5060372;28;20049;-88
2023/12/06 12:42:31;;;;;;;1999.90;999.90;;;;;;;;;;5069953;28;20053;-90
2023/12/06 12:44:57;;;;;;;1999.90;999.90;;;;;;;;;;5064886;28;20045;-91
2023/12/06 12:47:24;;;;;;;1999.90;999.90;;;;;;;;;;5070235;28;20067;-91
2023/12/06 12:49:51;;;;;;;1999.90;999.90;;;;;;;;;;5061404;28;20056;-90
2023/12/06 12:52:18;;;;;;;1999.90;999.90;;;;;;;;;;5064472;28;20052;-91
2023/12/06 12:54:46;;;;;;;1999.90;999.90;;;;;;;;;;5066627;28;20055;-92
2023/12/06 12:57:13;;;;;;;1999.90;999.90;;;;;;;;;;5059337;28;20080;-90
2023/12/06 12:59:45;;;;;;;1999.90;999.90;;;;;;;;;;5067973;28;20131;-89
2023/12/06 13:02:13;;;;;;;1999.90;999.90;;;;;;;;;;5066188;28;20041;-92
2023/12/06 13:04:39;;;;;;;1999.90;999.90;;;;;;;;;;5072297;28;20041;-92
2023/12/06 13:07:06;;;;;;;1999.90;999.90;;;;;;;;;;5077282;28;20053;-90
2023/12/06 13:09:33;;;;;;;1999.90;999.90;;;;;;;;;;5072396;28;20076;-92
2023/12/06 13:12:00;;;;;;;1999.90;999.90;;;;;;;;;;5079444;28;20048;-92
2023/12/06 13:14:27;;;;;;;1999.90;999.90;;;;;;;;;;5074653;28;20048;-89
2023/12/06 13:16:57;;;;;;;1999.90;999.90;;;;;;;;;;5073164;28;20421;-93
2023/12/06 13:19:23;;;;;;;1999.90;999.90;;;;;;;;;;5075627;28;20147;-94
2023/12/06 13:21:50;;;;;;;1999.90;999.90;;;;;;;;;;5079850;28;20052;-90
2023/12/06 13:24:17;;;;;;;1999.90;999.90;;;;;;;;;;5081558;28;20044;-93
2023/12/06 13:26:43;;;;;;;1999.90;999.90;;;;;;;;;;5077439;28;20409;-91
2023/12/06 13:29:10;;;;;;;1999.90;999.90;;;;;;;;;;5076699;28;20555;-91
2023/12/06 13:31:37;;;;;;;1999.90;999.90;;;;;;;;;;5080546;28;20055;-93
2023/12/06 13:34:06;;;;;;;1999.90;999.90;;;;;;;;;;5066011;28;20057;-90
2023/12/06 13:36:33;;;;;;;1999.90;999.90;;;;;;;;;;5071477;28;20059;-90
2023/12/06 13:38:59;;;;;;;1999.90;999.90;;;;;;;;;;5074820;28;20087;-91
2023/12/06 13:41:26;;;;;;;1999.90;999.90;;;;;;;;;;5071075;28;20082;-91
2023/12/06 13:43:54;;;;;;;1999.90;999.90;;;;;;;;;;5071741;28;20045;-89
2023/12/06 13:46:21;;;;;;;1999.90;999.90;;;;;;;;;;5076129;28;20059;-92